createdAt,value
2018-12-26T00:00:23.366Z,34.58
2018-12-26T00:02:52.742Z,33.38
2018-12-26T00:05:22.068Z,33.00
2018-12-26T00:07:51.541Z,29.57
2018-12-26T00:10:20.885Z,34.15
2018-12-26T00:12:52.919Z,31.42
2018-12-26T00:15:22.203Z,31.35
2018-12-26T00:17:51.577Z,32.88
2018-12-26T00:20:20.828Z,29.25
2018-12-26T00:22:50.111Z,32.83
2018-12-26T00:25:19.481Z,32.65
2018-12-26T00:27:48.691Z,32.05
2018-12-26T00:30:18.069Z,35.28
2018-12-26T00:32:47.386Z,36.03
2018-12-26T00:35:17.216Z,30.27
2018-12-26T00:37:46.492Z,32.33
2018-12-26T00:40:15.826Z,31.48
2018-12-26T00:42:45.174Z,34.13
2018-12-26T00:45:14.529Z,33.28
2018-12-26T00:47:43.914Z,30.57
2018-12-26T00:50:13.126Z,32.03
2018-12-26T00:52:42.376Z,32.33
2018-12-26T00:55:11.604Z,29.87
2018-12-26T00:57:40.822Z,29.82
2018-12-26T01:00:10.466Z,33.18
2018-12-26T01:02:39.785Z,34.88
2018-12-26T01:05:09.145Z,30.15
2018-12-26T01:07:38.670Z,31.85
2018-12-26T01:10:09.110Z,29.52
2018-12-26T01:12:38.489Z,29.85
2018-12-26T01:15:07.974Z,28.87
2018-12-26T01:17:37.372Z,28.73
2018-12-26T01:20:06.732Z,29.50
2018-12-26T01:22:36.089Z,29.05
2018-12-26T01:25:05.651Z,29.75
2018-12-26T01:27:34.942Z,30.57
2018-12-26T01:30:04.203Z,30.08
2018-12-26T01:32:33.546Z,28.57
2018-12-26T01:35:02.878Z,31.60
2018-12-26T01:37:32.242Z,31.02
2018-12-26T01:40:01.644Z,28.57
2018-12-26T01:42:30.898Z,28.30
2018-12-26T01:45:00.194Z,30.40
2018-12-26T01:47:29.523Z,30.60
2018-12-26T01:49:58.797Z,28.65
2018-12-26T01:52:27.994Z,27.22
2018-12-26T01:54:57.308Z,28.65
2018-12-26T01:57:26.813Z,26.23
2018-12-26T01:59:57.255Z,27.15
2018-12-26T02:02:26.557Z,28.50
2018-12-26T02:04:57.371Z,24.65
2018-12-26T02:07:26.649Z,27.15
2018-12-26T02:09:57.372Z,25.82
2018-12-26T02:12:26.747Z,28.05
2018-12-26T02:14:56.103Z,27.25
2018-12-26T02:17:25.428Z,25.68
2018-12-26T02:19:54.695Z,26.65
2018-12-26T02:22:24.120Z,24.25
2018-12-26T02:24:53.498Z,25.68
2018-12-26T02:27:22.851Z,24.25
2018-12-26T02:29:52.130Z,25.45
2018-12-26T02:32:23.158Z,24.95
2018-12-26T02:34:52.429Z,24.25
2018-12-26T02:37:21.800Z,25.20
2018-12-26T02:39:51.197Z,26.12
2018-12-26T02:42:20.505Z,24.50
2018-12-26T02:44:49.776Z,24.75
2018-12-26T02:47:19.100Z,25.55
2018-12-26T02:49:48.364Z,27.20
2018-12-26T02:52:17.852Z,29.20
2018-12-26T02:54:47.239Z,25.55
2018-12-26T02:57:16.505Z,25.70
2018-12-26T02:59:45.870Z,27.17
2018-12-26T03:02:15.308Z,23.25
2018-12-26T03:04:44.659Z,24.20
2018-12-26T03:07:13.926Z,24.70
2018-12-26T03:09:43.314Z,27.15
2018-12-26T03:12:12.604Z,24.30
2018-12-26T03:14:41.885Z,26.73
2018-12-26T03:17:11.189Z,23.07
2018-12-26T03:19:40.645Z,25.60
2018-12-26T03:22:09.874Z,23.45
2018-12-26T03:24:39.238Z,26.27
2018-12-26T03:27:08.429Z,25.75
2018-12-26T03:29:37.792Z,27.27
2018-12-26T03:32:07.018Z,26.97
2018-12-26T03:34:37.081Z,24.25
2018-12-26T03:37:06.446Z,25.00
2018-12-26T03:39:35.760Z,25.92
2018-12-26T03:42:05.111Z,27.25
2018-12-26T03:44:36.112Z,25.97
2018-12-26T03:47:05.585Z,24.90
2018-12-26T03:49:34.942Z,27.00
2018-12-26T03:52:04.213Z,25.70
2018-12-26T03:54:33.547Z,25.12
2018-12-26T03:57:06.351Z,24.10
2018-12-26T03:59:34.266Z,23.80
2018-12-26T04:02:03.645Z,25.10
2018-12-26T04:04:32.899Z,24.18
2018-12-26T04:07:02.236Z,23.25
2018-12-26T04:09:31.676Z,24.02
2018-12-26T04:12:01.013Z,25.48
2018-12-26T04:14:30.490Z,24.40
2018-12-26T04:16:59.724Z,24.85
2018-12-26T04:19:32.189Z,22.55
2018-12-26T04:22:01.522Z,24.12
2018-12-26T04:24:31.157Z,24.55
2018-12-26T04:27:00.405Z,25.37
2018-12-26T04:29:29.763Z,21.80
2018-12-26T04:31:59.063Z,21.80
2018-12-26T04:34:28.357Z,24.27
2018-12-26T04:36:57.699Z,23.55
2018-12-26T04:39:26.993Z,25.23
2018-12-26T04:41:56.269Z,23.42
2018-12-26T04:44:25.527Z,21.50
2018-12-26T04:46:54.908Z,23.50
2018-12-26T04:49:24.097Z,22.37
2018-12-26T04:51:53.542Z,24.95
2018-12-26T04:54:22.874Z,25.17
2018-12-26T04:56:52.158Z,23.85
2018-12-26T04:59:21.510Z,25.17
2018-12-26T05:01:50.822Z,27.20
2018-12-26T05:04:20.004Z,25.48
2018-12-26T05:06:50.238Z,29.10
2018-12-26T05:09:19.608Z,27.75
2018-12-26T05:11:48.956Z,26.23
2018-12-26T05:14:18.196Z,25.08
2018-12-26T05:16:48.318Z,26.68
2018-12-26T05:19:17.680Z,22.98
2018-12-26T05:21:47.069Z,24.67
2018-12-26T05:24:16.482Z,25.43
2018-12-26T05:26:45.749Z,23.47
2018-12-26T05:29:14.980Z,22.90
2018-12-26T05:31:44.383Z,25.70
2018-12-26T05:34:13.640Z,21.95
2018-12-26T05:36:42.985Z,22.00
2018-12-26T05:39:12.357Z,22.52
2018-12-26T05:41:41.614Z,22.17
2018-12-26T05:44:10.889Z,23.42
2018-12-26T05:46:40.213Z,22.00
2018-12-26T05:49:09.573Z,18.73
2018-12-26T05:51:38.930Z,22.00
2018-12-26T05:54:08.229Z,20.72
2018-12-26T05:56:37.781Z,23.73
2018-12-26T05:59:07.163Z,21.82
2018-12-26T06:01:36.549Z,19.15
2018-12-26T06:04:05.916Z,21.70
2018-12-26T06:06:35.243Z,22.45
2018-12-26T06:09:07.685Z,22.15
2018-12-26T06:11:38.519Z,23.90
2018-12-26T06:14:07.869Z,20.45
2018-12-26T06:16:37.198Z,21.93
2018-12-26T06:19:06.555Z,21.97
2018-12-26T06:21:35.907Z,22.17
2018-12-26T06:24:05.216Z,21.20
2018-12-26T06:26:34.597Z,22.42
2018-12-26T06:29:03.782Z,24.52
2018-12-26T06:31:33.002Z,23.10
2018-12-26T06:34:02.265Z,23.15
2018-12-26T06:36:32.112Z,22.75
2018-12-26T06:39:01.405Z,19.82
2018-12-26T06:41:30.870Z,19.82
2018-12-26T06:44:00.222Z,20.12
2018-12-26T06:46:29.451Z,21.30
2018-12-26T06:48:58.670Z,21.20
2018-12-26T06:51:28.030Z,22.45
2018-12-26T06:53:57.361Z,22.75
2018-12-26T06:56:26.696Z,21.35
2018-12-26T06:58:57.088Z,24.85
2018-12-26T07:01:26.380Z,22.82
2018-12-26T07:03:55.754Z,24.18
2018-12-26T07:06:25.024Z,24.12
2018-12-26T07:08:57.009Z,24.67
2018-12-26T07:11:26.284Z,23.42
2018-12-26T07:13:55.556Z,20.97
2018-12-26T07:16:24.868Z,22.73
2018-12-26T07:18:54.180Z,23.83
2018-12-26T07:21:23.558Z,24.60
2018-12-26T07:23:52.892Z,20.17
2018-12-26T07:26:22.267Z,21.87
2018-12-26T07:28:51.623Z,22.75
2018-12-26T07:31:20.962Z,24.65
2018-12-26T07:33:50.325Z,22.62
2018-12-26T07:36:19.622Z,25.20
2018-12-26T07:38:48.880Z,22.62
2018-12-26T07:41:18.258Z,24.65
2018-12-26T07:43:47.526Z,23.00
2018-12-26T07:46:16.926Z,23.45
2018-12-26T07:48:46.304Z,22.52
2018-12-26T07:51:15.705Z,25.02
2018-12-26T07:53:45.978Z,23.62
2018-12-26T07:56:15.334Z,24.37
2018-12-26T07:58:44.689Z,25.48
2018-12-26T08:01:14.104Z,22.32
2018-12-26T08:03:43.516Z,22.93
2018-12-26T08:06:12.893Z,27.75
2018-12-26T08:08:42.299Z,23.27
2018-12-26T08:11:11.713Z,25.20
2018-12-26T08:13:41.007Z,22.90
2018-12-26T08:16:10.237Z,23.98
2018-12-26T08:18:42.218Z,25.85
2018-12-26T08:21:11.564Z,22.15
2018-12-26T08:23:41.281Z,24.05
2018-12-26T08:26:10.681Z,25.80
2018-12-26T08:28:40.069Z,28.17
2018-12-26T08:31:09.535Z,29.67
2018-12-26T08:33:38.899Z,30.30
2018-12-26T08:36:08.273Z,28.27
2018-12-26T08:38:37.744Z,32.25
2018-12-26T08:41:07.121Z,28.25
2018-12-26T08:43:36.561Z,25.52
2018-12-26T08:46:09.817Z,26.87
2018-12-26T08:48:39.155Z,23.18
2018-12-26T08:51:08.522Z,22.02
2018-12-26T08:53:40.781Z,22.93
2018-12-26T08:56:10.144Z,20.55
2018-12-26T08:58:39.469Z,21.57
2018-12-26T09:01:08.870Z,21.30
2018-12-26T09:03:39.349Z,21.87
2018-12-26T09:06:08.733Z,21.02
2018-12-26T09:08:38.285Z,22.87
2018-12-26T09:11:07.698Z,19.32
2018-12-26T09:13:37.057Z,21.48
2018-12-26T09:16:06.473Z,21.33
2018-12-26T09:18:35.978Z,22.50
2018-12-26T09:21:05.429Z,18.70
2018-12-26T09:23:34.867Z,20.88
2018-12-26T09:26:05.642Z,19.77
2018-12-26T09:28:43.631Z,19.77
2018-12-26T09:31:09.022Z,19.23
2018-12-26T09:33:38.340Z,19.60
2018-12-26T09:36:07.713Z,19.92
2018-12-26T09:38:37.034Z,19.40
2018-12-26T09:41:06.402Z,19.05
2018-12-26T09:43:35.769Z,21.95
2018-12-26T09:46:05.080Z,20.17
2018-12-26T09:48:38.590Z,21.00
2018-12-26T09:51:07.417Z,18.75
2018-12-26T09:53:36.845Z,19.10
2018-12-26T09:56:06.139Z,18.52
2018-12-26T09:58:35.358Z,18.15
2018-12-26T10:01:04.796Z,18.50
2018-12-26T10:03:34.170Z,17.05
2018-12-26T10:06:09.176Z,20.43
2018-12-26T10:08:38.409Z,18.48
2018-12-26T10:11:07.646Z,20.52
2018-12-26T10:13:40.183Z,18.42
2018-12-26T10:16:09.469Z,21.00
2018-12-26T10:18:39.060Z,21.82
2018-12-26T10:21:08.346Z,18.55
2018-12-26T10:23:37.684Z,17.70
2018-12-26T10:26:06.966Z,19.40
2018-12-26T10:28:36.547Z,18.70
2018-12-26T10:31:05.903Z,17.67
2018-12-26T10:33:35.986Z,19.23
2018-12-26T10:36:05.337Z,17.85
2018-12-26T10:38:34.808Z,19.40
2018-12-26T10:41:04.288Z,18.50
2018-12-26T10:43:33.665Z,19.90
2018-12-26T10:46:03.016Z,18.65
2018-12-26T10:48:32.389Z,18.95
2018-12-26T10:51:01.669Z,16.25
2018-12-26T10:53:34.171Z,19.27
2018-12-26T10:56:03.439Z,18.50
2018-12-26T10:58:32.742Z,19.77
2018-12-26T11:01:02.007Z,21.00
2018-12-26T11:03:31.276Z,20.55
2018-12-26T11:06:00.667Z,19.82
2018-12-26T11:08:30.041Z,17.77
2018-12-26T11:10:59.423Z,19.65
2018-12-26T11:13:28.739Z,18.90
2018-12-26T11:15:58.113Z,19.05
2018-12-26T11:18:27.381Z,18.73
2018-12-26T11:20:57.137Z,18.85
2018-12-26T11:23:26.444Z,20.92
2018-12-26T11:25:55.677Z,21.68
2018-12-26T11:28:24.979Z,19.55
2018-12-26T11:30:56.962Z,19.48
2018-12-26T11:33:26.302Z,17.57
2018-12-26T11:35:55.702Z,20.65
2018-12-26T11:38:24.947Z,18.90
2018-12-26T11:40:54.346Z,17.50
2018-12-26T11:43:23.785Z,17.92
2018-12-26T11:45:53.115Z,16.37
2018-12-26T11:48:22.765Z,16.30
2018-12-26T11:50:52.053Z,18.20
2018-12-26T11:53:21.387Z,17.40
2018-12-26T11:55:50.653Z,18.55
2018-12-26T11:58:19.859Z,16.52
2018-12-26T12:00:49.300Z,17.42
2018-12-26T12:03:18.553Z,15.30
2018-12-26T12:05:49.203Z,17.75
2018-12-26T12:08:18.537Z,16.70
2018-12-26T12:10:47.807Z,16.40
2018-12-26T12:13:17.233Z,15.40
2018-12-26T12:15:46.572Z,16.32
2018-12-26T12:18:17.008Z,16.75
2018-12-26T12:20:46.293Z,14.45
2018-12-26T12:23:15.631Z,15.13
2018-12-26T12:25:44.899Z,15.05
2018-12-26T12:28:14.273Z,15.20
2018-12-26T12:30:43.564Z,15.03
2018-12-26T12:33:12.747Z,16.80
2018-12-26T12:35:42.350Z,16.85
2018-12-26T12:38:11.684Z,17.48
2018-12-26T12:40:40.909Z,16.90
2018-12-26T12:43:12.010Z,17.70
2018-12-26T12:45:41.354Z,16.97
2018-12-26T12:48:10.709Z,15.68
2018-12-26T12:50:40.088Z,16.42
2018-12-26T12:53:10.387Z,18.10
2018-12-26T12:55:41.913Z,16.50
2018-12-26T12:58:10.854Z,15.23
2018-12-26T13:00:40.251Z,15.55
2018-12-26T13:03:09.679Z,16.48
2018-12-26T13:05:39.025Z,15.72
2018-12-26T13:08:08.439Z,14.75
2018-12-26T13:10:39.046Z,17.95
2018-12-26T13:13:08.603Z,15.13
2018-12-26T13:15:37.965Z,16.57
2018-12-26T13:18:07.406Z,14.38
2018-12-26T13:20:36.807Z,14.40
2018-12-26T13:23:06.102Z,15.68
2018-12-26T13:25:35.451Z,18.10
2018-12-26T13:28:04.873Z,15.30
2018-12-26T13:30:34.304Z,13.75
2018-12-26T13:33:03.787Z,13.90
2018-12-26T13:35:33.089Z,16.25
2018-12-26T13:38:02.454Z,15.20
2018-12-26T13:40:31.842Z,15.75
2018-12-26T13:43:04.105Z,16.30
2018-12-26T13:45:33.383Z,15.08
2018-12-26T13:48:02.796Z,13.90
2018-12-26T13:50:32.217Z,15.08
2018-12-26T13:53:01.604Z,15.68
2018-12-26T13:55:32.185Z,15.63
2018-12-26T13:58:01.897Z,14.30
2018-12-26T14:00:31.226Z,16.48
2018-12-26T14:03:00.462Z,14.33
2018-12-26T14:05:29.761Z,16.02
2018-12-26T14:07:59.229Z,16.10
2018-12-26T14:10:28.650Z,15.28
2018-12-26T14:12:58.097Z,14.63
2018-12-26T14:15:27.399Z,16.23
2018-12-26T14:17:56.814Z,16.05
2018-12-26T14:20:26.203Z,15.15
2018-12-26T14:22:55.475Z,14.87
2018-12-26T14:25:24.746Z,15.80
2018-12-26T14:27:54.160Z,15.55
2018-12-26T14:30:23.544Z,13.90
2018-12-26T14:32:52.876Z,14.68
2018-12-26T14:35:22.339Z,14.38
2018-12-26T14:37:51.538Z,14.83
2018-12-26T14:40:20.873Z,13.35
2018-12-26T14:42:50.247Z,13.35
2018-12-26T14:45:19.584Z,14.18
2018-12-26T14:47:48.945Z,14.83
2018-12-26T14:50:18.347Z,14.38
2018-12-26T14:52:47.707Z,12.73
2018-12-26T14:55:17.042Z,14.73
2018-12-26T14:57:53.853Z,14.18
2018-12-26T15:00:23.186Z,12.85
2018-12-26T15:02:52.629Z,14.38
2018-12-26T15:05:21.966Z,14.58
2018-12-26T15:07:51.170Z,11.95
2018-12-26T15:10:20.454Z,13.00
2018-12-26T15:12:49.780Z,13.85
2018-12-26T15:15:19.148Z,16.10
2018-12-26T15:17:48.549Z,16.40
2018-12-26T15:20:17.903Z,17.45
2018-12-26T15:22:47.116Z,16.27
2018-12-26T15:25:16.435Z,15.85
2018-12-26T15:27:45.807Z,15.65
2018-12-26T15:30:15.155Z,14.47
2018-12-26T15:32:44.555Z,15.30
2018-12-26T15:35:14.039Z,16.37
2018-12-26T15:37:43.464Z,15.83
2018-12-26T15:40:12.889Z,15.40
2018-12-26T15:42:47.298Z,16.77
2018-12-26T15:45:16.680Z,13.98
2018-12-26T15:47:46.014Z,14.87
2018-12-26T15:50:17.739Z,16.25
2018-12-26T15:52:47.100Z,17.70
2018-12-26T15:55:16.446Z,14.47
2018-12-26T15:57:45.706Z,14.90
2018-12-26T16:00:15.096Z,16.60
2018-12-26T16:02:44.390Z,15.65
2018-12-26T16:05:13.793Z,15.50
2018-12-26T16:07:43.077Z,16.20
2018-12-26T16:10:12.379Z,15.20
2018-12-26T16:12:43.600Z,15.93
2018-12-26T16:15:15.947Z,15.93
2018-12-26T16:17:45.356Z,14.45
2018-12-26T16:20:14.674Z,16.95
2018-12-26T16:22:44.078Z,16.48
2018-12-26T16:25:13.635Z,16.17
2018-12-26T16:27:43.107Z,16.25
2018-12-26T16:30:12.594Z,16.60
2018-12-26T16:32:42.130Z,17.92
2018-12-26T16:35:22.179Z,16.95
2018-12-26T16:37:43.150Z,16.70
2018-12-26T16:40:17.069Z,16.05
2018-12-26T16:42:46.891Z,16.30
2018-12-26T16:45:16.326Z,18.62
2018-12-26T16:47:45.853Z,17.40
2018-12-26T16:50:15.398Z,17.32
2018-12-26T16:52:45.598Z,19.12
2018-12-26T16:55:15.213Z,17.48
2018-12-26T16:57:52.058Z,17.27
2018-12-26T17:00:21.586Z,35.83
2018-12-26T17:02:51.065Z,39.30
2018-12-26T17:05:20.740Z,30.82
2018-12-26T17:07:54.761Z,28.35
2018-12-26T17:10:25.539Z,39.50
2018-12-26T17:12:54.997Z,27.70
2018-12-26T17:15:36.066Z,30.25
2018-12-26T17:18:11.568Z,40.28
2018-12-26T17:20:50.296Z,36.30
2018-12-26T17:23:47.117Z,44.10
2018-12-26T17:26:16.408Z,25.68
2018-12-26T17:28:49.011Z,27.27
2018-12-26T17:31:24.646Z,24.05
2018-12-26T17:33:54.252Z,23.00
2018-12-26T17:36:25.732Z,28.42
2018-12-26T17:38:54.746Z,27.15
2018-12-26T17:41:24.095Z,24.72
2018-12-26T17:43:53.390Z,29.90
2018-12-26T17:46:22.753Z,29.37
2018-12-26T17:48:52.210Z,33.98
2018-12-26T17:51:23.255Z,35.65
2018-12-26T17:54:42.862Z,37.80
2018-12-26T17:57:25.593Z,37.67
2018-12-26T18:00:23.742Z,40.50
2018-12-26T18:02:53.004Z,38.50
2018-12-26T18:05:22.228Z,44.98
2018-12-26T18:07:51.671Z,44.13
2018-12-26T18:10:20.935Z,46.42
2018-12-26T18:12:50.229Z,39.70
2018-12-26T18:15:19.526Z,46.08
2018-12-26T18:17:49.043Z,42.73
2018-12-26T18:20:18.454Z,43.63
2018-12-26T18:22:47.805Z,42.58
2018-12-26T18:25:17.054Z,39.23
2018-12-26T18:27:46.306Z,38.13
2018-12-26T18:30:16.035Z,36.17
2018-12-26T18:32:45.269Z,37.78
2018-12-26T18:35:14.642Z,34.90
2018-12-26T18:37:44.242Z,36.20
2018-12-26T18:40:13.673Z,34.92
2018-12-26T18:42:43.012Z,33.70
2018-12-26T18:45:12.229Z,36.25
2018-12-26T18:47:41.481Z,38.80
2018-12-26T18:50:11.606Z,35.92
2018-12-26T18:52:40.860Z,39.35
2018-12-26T18:55:10.151Z,36.15
2018-12-26T18:57:39.396Z,34.55
2018-12-26T19:00:11.582Z,34.73
2018-12-26T19:02:40.882Z,36.30
2018-12-26T19:05:11.312Z,36.10
2018-12-26T19:07:41.091Z,40.48
2018-12-26T19:10:11.451Z,40.63
2018-12-26T19:12:40.736Z,35.43
2018-12-26T19:15:10.305Z,38.28
2018-12-26T19:17:39.562Z,43.58
2018-12-26T19:20:10.608Z,43.20
2018-12-26T19:22:40.013Z,48.13
2018-12-26T19:25:09.265Z,40.70
2018-12-26T19:27:38.846Z,39.60
2018-12-26T19:30:11.595Z,42.98
2018-12-26T19:32:40.754Z,40.48
2018-12-26T19:35:16.020Z,39.30
2018-12-26T19:37:45.527Z,38.15
2018-12-26T19:40:17.024Z,38.45
2018-12-26T19:42:46.437Z,33.23
2018-12-26T19:45:15.892Z,34.53
2018-12-26T19:47:45.151Z,37.48
2018-12-26T19:50:14.504Z,40.38
2018-12-26T19:52:43.723Z,39.18
2018-12-26T19:55:15.112Z,39.25
2018-12-26T19:57:44.336Z,40.15
2018-12-26T20:00:13.597Z,43.30
2018-12-26T20:02:42.788Z,43.65
2018-12-26T20:05:12.095Z,42.35
2018-12-26T20:07:41.287Z,42.95
2018-12-26T20:10:13.523Z,41.68
2018-12-26T20:12:42.569Z,48.52
2018-12-26T20:15:13.372Z,45.95
2018-12-26T20:17:42.615Z,40.92
2018-12-26T20:20:13.567Z,41.02
2018-12-26T20:22:42.953Z,42.05
2018-12-26T20:25:12.317Z,45.03
2018-12-26T20:27:41.531Z,46.25
2018-12-26T20:30:11.108Z,44.15
2018-12-26T20:32:40.350Z,42.93
2018-12-26T20:35:11.805Z,41.40
2018-12-26T20:37:41.109Z,45.30
2018-12-26T20:40:10.674Z,43.68
2018-12-26T20:42:43.226Z,39.30
2018-12-26T20:45:13.648Z,42.60
2018-12-26T20:47:42.943Z,43.08
2018-12-26T20:50:14.651Z,40.28
2018-12-26T20:52:43.880Z,43.63
2018-12-26T20:55:13.235Z,42.20
2018-12-26T20:57:42.728Z,37.42
2018-12-26T21:00:12.439Z,41.65
2018-12-26T21:02:41.760Z,40.92
2018-12-26T21:05:11.325Z,39.05
2018-12-26T21:07:40.504Z,37.38
2018-12-26T21:10:10.027Z,42.05
2018-12-26T21:12:39.234Z,50.03
2018-12-26T21:15:08.892Z,63.90
2018-12-26T21:17:38.154Z,45.73
2018-12-26T21:20:08.753Z,55.33
2018-12-26T21:22:38.014Z,46.83
2018-12-26T21:25:08.654Z,50.17
2018-12-26T21:27:37.956Z,45.43
2018-12-26T21:30:10.068Z,54.80
2018-12-26T21:32:39.311Z,55.92
2018-12-26T21:35:08.596Z,53.25
2018-12-26T21:37:37.838Z,53.58
2018-12-26T21:40:07.312Z,52.65
2018-12-26T21:42:36.686Z,54.13
2018-12-26T21:45:06.317Z,53.02
2018-12-26T21:47:35.629Z,50.52
2018-12-26T21:50:05.347Z,50.08
2018-12-26T21:52:34.583Z,55.75
2018-12-26T21:55:03.836Z,55.80
2018-12-26T21:57:33.150Z,53.80
2018-12-26T22:00:02.331Z,55.35
2018-12-26T22:02:31.500Z,55.58
2018-12-26T22:05:00.735Z,52.13
2018-12-26T22:07:30.090Z,50.88
2018-12-26T22:09:59.501Z,50.28
2018-12-26T22:12:28.831Z,52.98
2018-12-26T22:14:58.006Z,55.78
2018-12-26T22:17:27.491Z,51.08
2018-12-26T22:19:56.785Z,52.17
2018-12-26T22:22:25.976Z,43.80
2018-12-26T22:24:55.461Z,46.18
2018-12-26T22:27:24.899Z,44.77
2018-12-26T22:29:54.115Z,47.95
2018-12-26T22:32:30.475Z,47.03
2018-12-26T22:34:54.403Z,44.58
2018-12-26T22:37:23.876Z,43.45
2018-12-26T22:39:53.105Z,44.83
2018-12-26T22:42:22.399Z,46.45
2018-12-26T22:44:51.657Z,45.55
2018-12-26T22:47:21.014Z,42.83
2018-12-26T22:49:50.297Z,39.92
2018-12-26T22:52:19.495Z,42.45
2018-12-26T22:54:48.731Z,41.30
2018-12-26T22:57:18.014Z,40.70
2018-12-26T22:59:47.268Z,39.67
2018-12-26T23:02:16.600Z,42.78
2018-12-26T23:04:45.926Z,45.05
2018-12-26T23:07:15.187Z,47.98
2018-12-26T23:09:44.369Z,42.45
2018-12-26T23:12:13.665Z,42.78
2018-12-26T23:14:42.867Z,45.58
2018-12-26T23:17:12.053Z,48.35
2018-12-26T23:19:41.336Z,44.67
2018-12-26T23:22:10.611Z,45.30
2018-12-26T23:24:40.048Z,46.45
2018-12-26T23:27:09.288Z,45.65
2018-12-26T23:29:38.465Z,46.37
2018-12-26T23:32:07.819Z,46.75
2018-12-26T23:34:37.128Z,41.80
2018-12-26T23:37:06.440Z,47.55
2018-12-26T23:39:35.747Z,46.73
2018-12-26T23:42:04.969Z,47.95
2018-12-26T23:44:34.229Z,43.48
2018-12-26T23:47:03.581Z,48.87
2018-12-26T23:49:32.799Z,45.78
2018-12-26T23:52:02.072Z,45.12
2018-12-26T23:54:31.302Z,46.37
2018-12-26T23:57:00.586Z,43.85
2018-12-26T23:59:29.857Z,44.23
